Time;durP1;ratioP1;P1;durP2;ratioP2;P2;SDS_P1;SDS_P2;PMS_P1;PMS_P2;Temp;Humidity;BMP_temperature;BMP_pressure;BME280_temperature;BME280_humidity;BME280_pressure;Samples;Min_cycle;Max_cycle;Signal;HPM_P1;HPM_P2
2023/05/07 00:03:37;;;;;;;13.80;12.40;;;;;;;9.82;83.20;98947.93;225711;1275;22544;-77
2023/05/07 00:08:40;;;;;;;16.00;12.90;;;;;;;9.78;83.60;98949.74;225752;1273;25279;-77
2023/05/07 00:13:43;;;;;;;14.30;12.70;;;;;;;9.74;83.09;98952.88;225723;1278;22540;-76
2023/05/07 00:18:46;;;;;;;16.30;13.40;;;;;;;9.71;83.14;98955.30;225623;1281;25406;-77
2023/05/07 00:23:51;;;;;;;16.80;12.30;;;;;;;9.68;83.35;98954.23;225687;1279;25338;-77
2023/05/07 00:28:54;;;;;;;16.00;12.80;;;;;;;9.65;83.63;98957.92;225759;1274;22534;-76
2023/05/07 00:33:56;;;;;;;16.10;14.00;;;;;;;9.62;83.28;98959.18;225624;1280;22548;-78
2023/05/07 00:39:01;;;;;;;17.30;13.70;;;;;;;9.60;83.67;98961.37;225749;1279;22586;-77
2023/05/07 00:44:06;;;;;;;16.20;12.60;;;;;;;9.58;83.56;98968.11;225705;1279;22559;-77
2023/05/07 00:49:09;;;;;;;15.00;12.00;;;;;;;9.55;83.47;98966.60;225715;1281;23866;-78
2023/05/07 00:54:13;;;;;;;13.10;11.70;;;;;;;9.52;83.56;98965.89;225739;1275;22541;-77
2023/05/07 00:59:22;;;;;;;14.50;11.20;;;;;;;9.48;83.93;98963.77;225578;1279;22539;-77
2023/05/07 01:04:24;;;;;;;13.50;11.00;;;;;;;9.46;83.67;98961.55;225770;1275;22537;-77
2023/05/07 01:09:31;;;;;;;11.80;10.30;;;;;;;9.44;83.68;98969.46;225678;1280;22574;-77
2023/05/07 01:14:34;;;;;;;12.50;10.80;;;;;;;9.40;83.58;98977.33;225711;1275;22540;-76
2023/05/07 01:19:36;;;;;;;14.60;13.10;;;;;;;9.37;83.76;98982.78;225652;1275;22535;-76
2023/05/07 01:24:42;;;;;;;14.80;13.40;;;;;;;9.34;83.92;98981.24;225744;1281;22547;-78
2023/05/07 01:29:47;;;;;;;16.60;14.70;;;;;;;9.31;83.82;98980.50;225635;1281;24946;-76
2023/05/07 01:34:51;;;;;;;17.70;14.40;;;;;;;9.30;83.74;98979.55;225696;1278;22576;-75
2023/05/07 01:40:01;;;;;;;16.70;14.50;;;;;;;9.28;83.92;98985.06;225575;1276;22551;-76
2023/05/07 01:45:09;;;;;;;17.70;14.60;;;;;;;9.25;84.11;98986.29;225716;1281;22537;-77
2023/05/07 01:50:18;;;;;;;17.20;13.90;;;;;;;9.22;83.96;98987.85;225558;1280;22546;-75
2023/05/07 01:55:32;;;;;;;18.50;15.00;;;;;;;9.18;84.24;98984.77;225712;1278;22544;-77
2023/05/07 02:00:36;;;;;;;19.80;15.80;;;;;;;9.16;84.12;98984.48;225560;1280;22572;-76
2023/05/07 02:05:39;;;;;;;21.40;15.90;;;;;;;9.13;84.27;98984.89;225654;1279;25394;-76
2023/05/07 02:10:49;;;;;;;21.10;16.50;;;;;;;9.08;84.11;98988.20;225665;1279;22532;-76
2023/05/07 02:15:53;;;;;;;21.50;16.70;;;;;;;9.02;84.41;98986.34;225624;1279;22535;-76
2023/05/07 02:20:59;;;;;;;22.30;17.00;;;;;;;8.96;84.42;98984.38;225624;1279;25234;-76
2023/05/07 02:26:04;;;;;;;22.30;18.00;;;;;;;8.92;84.27;98981.42;225731;1281;22541;-76
2023/05/07 02:31:07;;;;;;;20.60;15.80;;;;;;;8.87;84.62;98984.08;225607;1280;22608;-76
2023/05/07 02:36:18;;;;;;;19.50;14.30;;;;;;;8.82;84.71;98980.60;225595;1281;22530;-77
2023/05/07 02:41:32;;;;;;;15.80;12.80;;;;;;;8.79;84.35;98983.44;225747;1281;22572;-77
2023/05/07 02:46:35;;;;;;;15.00;11.40;;;;;;;8.75;84.29;98991.07;225834;1281;22543;-76
2023/05/07 02:51:42;;;;;;;14.00;11.30;;;;;;;8.71;84.53;98992.58;225753;1274;22552;-77
2023/05/07 02:56:55;;;;;;;18.30;11.60;;;;;;;8.69;84.46;98994.52;225655;1278;22909;-76
2023/05/07 03:01:59;;;;;;;13.20;10.00;;;;;;;8.67;84.60;99000.21;225603;1277;22543;-76
2023/05/07 03:07:01;;;;;;;11.00;9.40;;;;;;;8.64;84.60;99005.10;225597;1279;22538;-75
2023/05/07 03:12:03;;;;;;;8.60;7.30;;;;;;;8.63;84.73;99011.91;225570;1280;24245;-77
2023/05/07 03:17:31;;;;;;;8.90;7.80;;;;;;;8.60;84.44;99018.62;225622;1278;22546;-76
2023/05/07 03:22:37;;;;;;;7.20;6.50;;;;;;;8.54;84.49;99022.71;225667;1278;22927;-76
2023/05/07 03:27:49;;;;;;;8.40;7.00;;;;;;;8.51;84.68;99024.83;225450;1280;22543;-77
2023/05/07 03:32:59;;;;;;;7.30;6.60;;;;;;;8.51;84.29;99030.29;225548;1280;22545;-77
2023/05/07 03:38:14;;;;;;;6.90;5.90;;;;;;;8.48;84.66;99032.13;225734;1275;22536;-76
2023/05/07 03:43:22;;;;;;;6.50;5.60;;;;;;;8.45;84.49;99034.23;225643;1281;22541;-76
2023/05/07 03:48:31;;;;;;;6.50;5.30;;;;;;;8.41;84.55;99036.45;225664;1275;22534;-76
2023/05/07 03:53:37;;;;;;;6.60;4.80;;;;;;;8.37;84.61;99038.05;225646;1280;22529;-76
2023/05/07 03:58:40;;;;;;;6.80;5.20;;;;;;;8.35;84.76;99042.27;225714;1277;22658;-76
2023/05/07 04:03:44;;;;;;;6.10;5.40;;;;;;;8.31;84.51;99052.66;225673;1279;22647;-76
2023/05/07 04:08:47;;;;;;;6.20;5.60;;;;;;;8.27;84.80;99058.16;225646;1275;22533;-76
2023/05/07 04:13:51;;;;;;;5.50;4.70;;;;;;;8.25;84.64;99060.10;225709;1280;23756;-76
2023/05/07 04:18:55;;;;;;;5.60;5.00;;;;;;;8.25;84.63;99069.83;225610;1279;22548;-77
2023/05/07 04:24:05;;;;;;;6.30;5.10;;;;;;;8.21;84.46;99076.51;225727;1277;22586;-76
2023/05/07 04:29:08;;;;;;;7.20;6.20;;;;;;;8.17;84.46;99081.58;225640;1279;22540;-77
2023/05/07 04:34:11;;;;;;;10.90;8.10;;;;;;;8.14;84.39;99089.42;225611;1281;22564;-77
2023/05/07 04:39:23;;;;;;;10.80;9.10;;;;;;;8.09;84.39;99099.18;225802;1281;22547;-77
2023/05/07 04:44:32;;;;;;;9.00;8.10;;;;;;;8.05;84.17;99106.45;225800;1270;22540;-76
2023/05/07 04:49:43;;;;;;;10.30;9.20;;;;;;;8.05;84.41;99123.05;225629;1281;22580;-75
2023/05/07 04:54:46;;;;;;;10.80;8.30;;;;;;;8.05;84.74;99123.48;225704;1278;22547;-77
2023/05/07 04:59:54;;;;;;;8.60;7.60;;;;;;;8.07;84.67;99127.50;225681;1275;25236;-76
2023/05/07 05:05:07;;;;;;;10.70;8.80;;;;;;;8.09;84.65;99133.09;225673;1280;22537;-76
2023/05/07 05:10:16;;;;;;;9.40;7.40;;;;;;;8.08;84.31;99137.20;225680;1281;23650;-75
2023/05/07 05:15:20;;;;;;;9.60;8.10;;;;;;;8.07;84.55;99137.73;225783;1278;23099;-76
2023/05/07 05:20:22;;;;;;;16.70;9.70;;;;;;;8.03;84.71;99143.14;225698;1281;22548;-75
2023/05/07 05:25:24;;;;;;;12.60;8.90;;;;;;;7.99;84.35;99152.52;225763;1278;22523;-75
2023/05/07 05:30:27;;;;;;;9.00;8.10;;;;;;;7.97;84.33;99163.28;225631;1279;22591;-77
2023/05/07 05:35:33;;;;;;;11.50;8.30;;;;;;;7.96;84.47;99167.88;225831;1278;22538;-77
2023/05/07 05:40:37;;;;;;;12.20;9.00;;;;;;;7.93;83.97;99175.85;225895;1280;22541;-75
2023/05/07 05:45:42;;;;;;;12.10;10.30;;;;;;;7.92;84.72;99185.95;225778;1280;22543;-76
2023/05/07 05:50:44;;;;;;;10.40;7.80;;;;;;;7.88;84.40;99187.41;225871;1280;22563;-77
2023/05/07 05:55:53;;;;;;;9.30;6.90;;;;;;;7.85;84.41;99188.48;225664;1280;22544;-77
2023/05/07 06:01:02;;;;;;;9.30;7.40;;;;;;;7.87;84.34;99192.61;225743;1278;22573;-77
2023/05/07 06:06:07;;;;;;;9.70;8.30;;;;;;;7.94;84.31;99192.17;225756;1280;22560;-77
2023/05/07 06:11:12;;;;;;;8.20;7.40;;;;;;;8.00;84.25;99196.66;225837;1278;24226;-76
2023/05/07 06:16:16;;;;;;;8.90;7.00;;;;;;;7.95;83.66;99198.23;225880;1277;22524;-76
2023/05/07 06:21:23;;;;;;;7.90;6.90;;;;;;;7.86;83.97;99211.88;225966;1280;22636;-78
2023/05/07 06:26:27;;;;;;;9.60;8.30;;;;;;;7.74;83.67;99214.67;225813;1270;24238;-77
2023/05/07 06:31:32;;;;;;;9.10;7.60;;;;;;;7.65;83.93;99214.17;225776;1278;24222;-76
2023/05/07 06:36:41;;;;;;;8.20;7.40;;;;;;;7.58;84.11;99217.89;225697;1279;22719;-76
2023/05/07 06:41:49;;;;;;;8.80;7.90;;;;;;;7.59;83.98;99225.05;225694;1280;22536;-76
2023/05/07 06:47:05;;;;;;;8.50;7.60;;;;;;;7.58;84.10;99228.48;225908;1277;22523;-76
2023/05/07 06:52:08;;;;;;;8.20;7.40;;;;;;;7.52;84.19;99231.84;225918;1278;22540;-77
2023/05/07 06:57:13;;;;;;;8.50;7.30;;;;;;;7.45;84.01;99236.03;225907;1277;22587;-77
2023/05/07 07:02:25;;;;;;;9.10;8.20;;;;;;;7.40;84.37;99240.92;225684;1279;22537;-77
2023/05/07 07:07:34;;;;;;;7.80;7.10;;;;;;;7.47;84.25;99246.63;225905;1278;22585;-76
2023/05/07 07:12:39;;;;;;;8.50;7.40;;;;;;;7.56;84.24;99253.06;225914;1277;22594;-77
2023/05/07 07:17:42;;;;;;;10.60;7.60;;;;;;;7.63;84.37;99257.02;225717;1280;22539;-75
2023/05/07 07:22:45;;;;;;;7.80;7.00;;;;;;;7.70;83.96;99262.10;225861;1278;23305;-76
2023/05/07 07:28:08;;;;;;;7.90;7.10;;;;;;;7.83;84.39;99270.89;225920;1278;25716;-77
2023/05/07 07:33:15;;;;;;;8.80;7.70;;;;;;;8.02;83.56;99272.77;225570;1278;22555;-76
2023/05/07 07:38:19;;;;;;;8.10;7.30;;;;;;;8.12;83.18;99276.23;225531;1279;22580;-76
2023/05/07 07:43:22;;;;;;;7.80;7.00;;;;;;;8.20;82.99;99287.36;225543;1278;22620;-77
2023/05/07 07:48:25;;;;;;;7.50;6.70;;;;;;;8.35;82.81;99284.80;225509;1278;22563;-76
2023/05/07 07:53:37;;;;;;;7.40;6.70;;;;;;;8.63;82.61;99289.40;225518;1278;22527;-76
2023/05/07 07:58:56;;;;;;;5.60;5.10;;;;;;;8.80;81.91;99294.34;225566;1281;22523;-76
2023/05/07 08:04:02;;;;;;;5.40;4.30;;;;;;;8.86;81.30;99296.70;225546;1281;22552;-78
2023/05/07 08:09:08;;;;;;;5.50;4.90;;;;;;;8.99;81.35;99297.87;225541;1277;22532;-76
2023/05/07 08:14:29;;;;;;;7.40;6.60;;;;;;;9.19;80.82;99299.45;225583;1282;22532;-77
2023/05/07 08:19:39;;;;;;;5.50;4.90;;;;;;;9.41;80.46;99301.23;225555;1281;22539;-76
2023/05/07 08:24:46;;;;;;;5.30;4.80;;;;;;;9.63;79.85;99307.41;225590;1278;22545;-77
2023/05/07 08:29:58;;;;;;;5.30;4.80;;;;;;;9.70;79.15;99313.73;225569;1278;22523;-77
2023/05/07 08:35:01;;;;;;;3.70;3.40;;;;;;;9.69;78.71;99318.87;225548;1281;22580;-77
2023/05/07 08:40:06;;;;;;;4.00;3.70;;;;;;;9.74;77.77;99319.76;225589;1282;22585;-77
2023/05/07 08:45:13;;;;;;;3.70;3.40;;;;;;;9.87;77.93;99325.69;225472;1278;22563;-79
2023/05/07 08:50:18;;;;;;;4.40;4.00;;;;;;;9.99;78.05;99331.95;225461;1282;22513;-77
2023/05/07 08:55:28;;;;;;;5.30;4.70;;;;;;;10.05;77.71;99336.75;225390;1281;24879;-75
2023/05/07 09:00:42;;;;;;;5.70;5.20;;;;;;;10.08;77.31;99347.63;225455;1282;22606;-77
2023/05/07 09:05:45;;;;;;;6.50;6.00;;;;;;;10.05;76.91;99349.88;225466;1280;22533;-76
2023/05/07 09:10:49;;;;;;;6.40;5.80;;;;;;;10.07;77.07;99353.05;225557;1278;22559;-77
2023/05/07 09:15:51;;;;;;;4.70;4.20;;;;;;;10.20;76.49;99357.59;225416;1280;22536;-76
2023/05/07 09:20:58;;;;;;;5.10;4.60;;;;;;;10.59;76.58;99355.08;225380;1282;22568;-76
2023/05/07 09:26:01;;;;;;;4.30;3.90;;;;;;;10.95;75.91;99361.55;225517;1279;22647;-77
2023/05/07 09:31:11;;;;;;;3.40;3.10;;;;;;;11.01;75.11;99369.88;225559;1281;22533;-76
2023/05/07 09:36:15;;;;;;;5.40;3.50;;;;;;;10.86;74.16;99372.62;225487;1282;22544;-76
2023/05/07 09:41:19;;;;;;;3.80;3.30;;;;;;;10.79;74.10;99371.65;225505;1282;22587;-75
2023/05/07 09:46:38;;;;;;;3.70;3.40;;;;;;;10.86;74.67;99375.92;225510;1280;22563;-77
2023/05/07 09:51:50;;;;;;;2.40;2.20;;;;;;;10.98;74.52;99383.55;225513;1280;22530;-76
2023/05/07 09:56:58;;;;;;;3.10;2.50;;;;;;;11.16;73.99;99382.63;225563;1281;23248;-77
2023/05/07 10:02:04;;;;;;;4.20;3.30;;;;;;;11.22;73.27;99382.88;225536;1281;24218;-75
2023/05/07 10:07:12;;;;;;;4.40;4.00;;;;;;;11.15;73.08;99390.11;225567;1281;22609;-76
2023/05/07 10:12:17;;;;;;;4.90;4.10;;;;;;;10.92;72.86;99395.95;225482;1281;22639;-76
2023/05/07 10:17:20;;;;;;;20.30;16.60;;;;;;;10.60;72.65;99397.61;225441;1281;22549;-76
2023/05/07 10:22:27;;;;;;;4.10;3.50;;;;;;;10.35;73.20;99406.64;225394;1282;22550;-77
2023/05/07 10:27:30;;;;;;;4.10;2.90;;;;;;;10.21;73.59;99407.46;225516;1281;22541;-79
2023/05/07 10:32:37;;;;;;;2.80;2.40;;;;;;;10.06;73.34;99414.59;225524;1281;22610;-77
2023/05/07 10:37:41;;;;;;;3.10;2.90;;;;;;;10.03;73.68;99409.25;225417;1282;157261;-75
2023/05/07 10:43:04;;;;;;;3.10;2.80;;;;;;;10.09;73.89;99412.08;225441;1282;22709;-76
2023/05/07 10:48:24;;;;;;;4.20;3.80;;;;;;;10.09;73.59;99416.66;225558;1282;22550;-75
2023/05/07 10:53:44;;;;;;;4.00;3.60;;;;;;;10.13;73.61;99424.13;225522;1282;25327;-76
2023/05/07 10:58:51;;;;;;;3.10;2.80;;;;;;;10.07;73.27;99422.02;225423;1281;22525;-77
2023/05/07 11:04:24;;;;;;;3.60;3.30;;;;;;;10.04;73.61;99427.34;225538;1278;22644;-75
2023/05/07 11:09:51;;;;;;;3.60;3.30;;;;;;;9.97;73.70;99433.84;225526;1282;22540;-75
2023/05/07 11:14:57;;;;;;;4.50;3.40;;;;;;;9.88;73.93;99439.94;225665;1281;22549;-76
2023/05/07 11:20:05;;;;;;;3.00;2.80;;;;;;;9.80;73.88;99439.58;225572;1278;22546;-75
2023/05/07 11:25:19;;;;;;;3.90;3.30;;;;;;;9.69;73.44;99437.87;225410;1282;22567;-75
2023/05/07 11:30:26;;;;;;;3.80;3.20;;;;;;;9.61;73.64;99445.56;225563;1282;22510;-75
2023/05/07 11:35:29;;;;;;;4.30;3.90;;;;;;;9.65;73.80;99454.77;225467;1282;22547;-75
2023/05/07 11:40:32;;;;;;;5.90;4.50;;;;;;;9.72;73.99;99450.16;225542;1281;22586;-76
2023/05/07 11:45:35;;;;;;;4.80;4.40;;;;;;;9.89;74.01;99450.27;225537;1265;22529;-77
2023/05/07 11:51:00;;;;;;;4.90;4.40;;;;;;;10.06;73.90;99445.21;225469;1282;22541;-75
2023/05/07 11:56:07;;;;;;;4.00;3.60;;;;;;;10.30;73.46;99452.95;225527;1281;22555;-75
2023/05/07 12:01:11;;;;;;;6.70;5.80;;;;;;;10.37;73.21;99458.35;225604;1276;22541;-77
2023/05/07 12:06:16;;;;;;;5.60;4.90;;;;;;;10.31;72.87;99465.55;225490;1279;22593;-76
2023/05/07 12:11:24;;;;;;;5.30;4.70;;;;;;;10.13;72.60;99470.84;225518;1279;22545;-77
2023/05/07 12:16:29;;;;;;;5.30;4.70;;;;;;;9.99;72.92;99472.19;225435;1280;24231;-76
2023/05/07 12:21:35;;;;;;;5.50;5.00;;;;;;;9.85;73.37;99480.22;225470;1276;23760;-76
2023/05/07 12:26:40;;;;;;;6.60;5.90;;;;;;;9.78;73.23;99485.70;225552;1281;22541;-76
2023/05/07 12:31:43;;;;;;;6.10;5.50;;;;;;;9.74;73.61;99488.28;225510;1279;24281;-76
2023/05/07 12:36:49;;;;;;;6.90;4.90;;;;;;;9.77;73.49;99492.70;225542;1282;22592;-75
2023/05/07 12:42:04;;;;;;;5.50;4.20;;;;;;;9.73;73.20;99494.51;225557;1278;25321;-75
2023/05/07 12:47:07;;;;;;;5.70;5.20;;;;;;;9.62;73.33;99497.52;225517;1279;22547;-75
2023/05/07 12:52:11;;;;;;;6.00;5.40;;;;;;;9.50;72.91;99492.48;225570;1282;22601;-77
2023/05/07 12:57:13;;;;;;;6.00;4.90;;;;;;;9.60;73.39;99494.73;225551;1282;22567;-75
2023/05/07 13:02:16;;;;;;;5.90;5.30;;;;;;;9.99;74.15;99499.48;225542;1282;22750;-75
2023/05/07 13:07:18;;;;;;;4.40;4.00;;;;;;;10.37;73.07;99499.50;225404;1282;22646;-76
2023/05/07 13:12:20;;;;;;;4.40;3.90;;;;;;;10.49;72.65;99497.50;225606;1281;22544;-76
2023/05/07 13:17:24;;;;;;;5.30;4.80;;;;;;;10.49;72.46;99502.66;225594;1282;22545;-75
2023/05/07 13:22:30;;;;;;;4.30;4.00;;;;;;;10.32;72.17;99505.70;225553;1282;22544;-76
2023/05/07 13:27:36;;;;;;;3.80;3.40;;;;;;;10.18;72.16;99506.14;225438;1282;22549;-75
2023/05/07 13:32:41;;;;;;;4.10;3.70;;;;;;;10.06;72.44;99506.40;225537;1279;22559;-76
2023/05/07 13:37:48;;;;;;;4.10;3.30;;;;;;;10.00;72.30;99509.01;225527;1282;22550;-76
2023/05/07 13:42:54;;;;;;;4.60;4.10;;;;;;;9.96;72.59;99505.61;225445;1281;22535;-76
2023/05/07 13:47:58;;;;;;;4.30;3.40;;;;;;;10.00;72.50;99501.45;225447;1282;22547;-75
2023/05/07 13:53:00;;;;;;;4.70;3.10;;;;;;;10.22;73.07;99497.08;225616;1278;22611;-76
2023/05/07 13:58:02;;;;;;;4.40;3.20;;;;;;;10.42;72.55;99499.90;225531;1279;22555;-77
2023/05/07 14:03:08;;;;;;;4.70;3.30;;;;;;;10.50;72.28;99500.24;225603;1261;24257;-75
2023/05/07 14:08:13;;;;;;;3.20;2.70;;;;;;;10.44;71.63;99505.80;225615;1280;22911;-74
2023/05/07 14:13:16;;;;;;;3.10;2.80;;;;;;;10.26;71.86;99509.92;225460;1282;22577;-76
2023/05/07 14:18:21;;;;;;;3.20;2.80;;;;;;;10.06;71.65;99512.84;225620;1282;22610;-76
2023/05/07 14:23:29;;;;;;;3.40;3.10;;;;;;;9.93;72.42;99516.55;225594;1279;22774;-76
2023/05/07 14:28:32;;;;;;;4.40;3.30;;;;;;;9.82;72.04;99522.05;225602;1273;22552;-75
2023/05/07 14:33:34;;;;;;;4.80;3.50;;;;;;;9.79;72.36;99527.52;225555;1279;22543;-77
2023/05/07 14:38:37;;;;;;;3.90;3.50;;;;;;;9.82;72.70;99532.76;225610;1279;22536;-75
2023/05/07 14:43:42;;;;;;;4.20;3.60;;;;;;;9.80;72.63;99535.67;225592;1281;22550;-76
2023/05/07 14:48:47;;;;;;;3.70;3.40;;;;;;;9.70;72.44;99539.92;225542;1282;22650;-75
2023/05/07 14:53:50;;;;;;;3.80;3.00;;;;;;;9.51;72.28;99543.89;225516;1282;22548;-76
2023/05/07 14:58:52;;;;;;;4.10;3.60;;;;;;;9.33;72.28;99543.81;225443;1282;23289;-75
2023/05/07 15:03:54;;;;;;;4.40;3.50;;;;;;;9.19;72.54;99545.39;225589;1262;23959;-76
2023/05/07 15:08:57;;;;;;;4.40;3.70;;;;;;;9.07;73.39;99552.68;225458;1282;22580;-75
2023/05/07 15:14:01;;;;;;;6.00;4.50;;;;;;;9.05;73.09;99555.38;225538;1282;22621;-76
2023/05/07 15:19:07;;;;;;;5.00;4.20;;;;;;;9.05;73.28;99556.08;225634;1276;25248;-75
2023/05/07 15:24:29;;;;;;;5.40;4.80;;;;;;;9.04;73.56;99554.14;225550;1279;22543;-76
2023/05/07 15:29:35;;;;;;;5.80;4.90;;;;;;;9.05;73.38;99557.84;225563;1280;22558;-75
2023/05/07 15:34:38;;;;;;;7.70;5.90;;;;;;;9.07;73.53;99560.64;225616;1280;22551;-76
2023/05/07 15:39:40;;;;;;;9.60;7.40;;;;;;;9.09;73.80;99565.69;225593;1280;25444;-76
2023/05/07 15:44:43;;;;;;;12.40;8.80;;;;;;;9.15;73.89;99563.31;225556;1279;22547;-79
2023/05/07 15:49:45;;;;;;;7.80;6.10;;;;;;;9.16;73.72;99565.13;225596;1282;22539;-75
2023/05/07 15:54:47;;;;;;;12.60;9.10;;;;;;;9.11;74.11;99579.17;225434;1279;25240;-75
2023/05/07 15:59:50;;;;;;;7.20;6.10;;;;;;;8.97;73.38;99579.61;225608;1280;22554;-79
2023/05/07 16:04:53;;;;;;;6.80;5.60;;;;;;;8.82;73.32;99586.27;225656;1278;22553;-79
2023/05/07 16:09:58;;;;;;;5.30;4.50;;;;;;;8.66;73.71;99586.33;225563;1279;22541;-76
2023/05/07 16:15:04;;;;;;;5.00;4.40;;;;;;;8.54;73.90;99591.89;225616;1280;22571;-75
2023/05/07 16:20:07;;;;;;;6.30;5.10;;;;;;;8.43;73.76;99591.85;225555;1276;25249;-75
2023/05/07 16:25:10;;;;;;;5.90;5.10;;;;;;;8.33;73.58;99587.06;225538;1282;22682;-76
2023/05/07 16:30:13;;;;;;;5.50;4.70;;;;;;;8.23;73.60;99588.91;225612;1276;22550;-75
2023/05/07 16:35:15;;;;;;;6.30;5.60;;;;;;;8.14;73.42;99594.00;225510;1280;25405;-74
2023/05/07 16:40:21;;;;;;;5.90;4.70;;;;;;;8.07;73.74;99586.80;225535;1261;24892;-76
2023/05/07 16:45:23;;;;;;;6.80;6.10;;;;;;;8.04;74.69;99593.05;225512;1279;22592;-76
2023/05/07 16:50:26;;;;;;;8.50;6.50;;;;;;;8.04;74.80;99596.52;225524;1282;22558;-76
2023/05/07 16:55:33;;;;;;;12.50;7.60;;;;;;;8.05;74.39;99595.21;225557;1282;22627;-75
2023/05/07 17:00:39;;;;;;;6.80;6.10;;;;;;;8.07;74.85;99591.31;225541;1277;22547;-76
2023/05/07 17:05:52;;;;;;;8.40;5.80;;;;;;;8.08;74.95;99595.49;225628;1278;22576;-76
2023/05/07 17:10:54;;;;;;;6.60;5.80;;;;;;;8.06;74.79;99605.45;225577;1277;22625;-76
2023/05/07 17:15:57;;;;;;;7.80;6.10;;;;;;;8.02;74.39;99607.13;225613;1279;22560;-75
2023/05/07 17:21:03;;;;;;;6.50;5.50;;;;;;;7.98;75.02;99612.27;225602;1279;24287;-75
2023/05/07 17:26:11;;;;;;;6.40;5.80;;;;;;;7.93;74.81;99611.52;225524;1282;22547;-75
2023/05/07 17:31:14;;;;;;;7.50;5.90;;;;;;;7.89;74.64;99611.90;225601;1278;22543;-75
2023/05/07 17:36:19;;;;;;;7.80;6.70;;;;;;;7.86;74.53;99623.43;225597;1275;22547;-76
2023/05/07 17:41:21;;;;;;;7.80;6.60;;;;;;;7.83;74.83;99625.35;225533;1277;24365;-76
2023/05/07 17:46:23;;;;;;;6.90;6.00;;;;;;;7.78;74.87;99631.23;225626;1280;22568;-76
2023/05/07 17:51:28;;;;;;;10.60;8.30;;;;;;;7.74;75.00;99640.75;225632;1278;22542;-76
2023/05/07 17:56:43;;;;;;;6.70;6.00;;;;;;;7.71;75.01;99639.88;225532;1279;22575;-75
2023/05/07 18:01:45;;;;;;;10.50;6.70;;;;;;;7.66;75.18;99640.09;225599;1272;24466;-76
2023/05/07 18:06:48;;;;;;;11.10;7.20;;;;;;;7.63;75.17;99641.52;225539;1279;22616;-75
2023/05/07 18:11:54;;;;;;;9.20;7.20;;;;;;;7.58;74.97;99645.13;225499;1280;27065;-74
2023/05/07 18:17:00;;;;;;;9.80;7.30;;;;;;;7.52;75.29;99645.69;225611;1282;25237;-75
2023/05/07 18:22:02;;;;;;;10.00;8.40;;;;;;;7.47;75.37;99643.77;225624;1270;22549;-75
2023/05/07 18:27:06;;;;;;;7.70;6.50;;;;;;;7.43;75.41;99647.80;225544;1277;22763;-75
2023/05/07 18:32:12;;;;;;;9.70;8.20;;;;;;;7.42;75.54;99650.89;225609;1282;22644;-76
2023/05/07 18:37:15;;;;;;;7.00;6.20;;;;;;;7.40;75.71;99654.27;225501;1282;22549;-76
2023/05/07 18:42:18;;;;;;;8.20;6.80;;;;;;;7.37;75.23;99659.58;225489;1282;22552;-76
2023/05/07 18:47:23;;;;;;;6.90;6.10;;;;;;;7.36;75.39;99654.64;225497;1282;22573;-76
2023/05/07 18:52:27;;;;;;;7.60;5.90;;;;;;;7.35;75.61;99659.23;225495;1280;22546;-75
2023/05/07 18:57:30;;;;;;;7.30;5.70;;;;;;;7.32;75.38;99667.42;225617;1282;22642;-75
2023/05/07 19:02:32;;;;;;;7.70;6.10;;;;;;;7.30;75.73;99669.89;225525;1279;22558;-75
2023/05/07 19:07:36;;;;;;;9.40;6.40;;;;;;;7.30;75.92;99677.09;225596;1278;22536;-75
2023/05/07 19:12:39;;;;;;;8.50;6.90;;;;;;;7.31;75.91;99678.88;225641;1279;22540;-74
2023/05/07 19:17:46;;;;;;;8.80;6.60;;;;;;;7.32;75.93;99681.78;225527;1279;22594;-75
2023/05/07 19:22:48;;;;;;;8.60;6.80;;;;;;;7.33;75.67;99687.55;225467;1276;25274;-75
2023/05/07 19:27:51;;;;;;;8.50;6.90;;;;;;;7.33;75.64;99695.23;225622;1275;25945;-75
2023/05/07 19:33:00;;;;;;;7.30;5.70;;;;;;;7.32;75.96;99695.31;225642;1275;22543;-74
2023/05/07 19:38:04;;;;;;;8.70;5.80;;;;;;;7.31;75.87;99699.35;225625;1275;22545;-75
2023/05/07 19:43:06;;;;;;;7.90;5.70;;;;;;;7.30;75.39;99711.59;225510;1280;25399;-75
2023/05/07 19:48:10;;;;;;;8.20;6.50;;;;;;;7.28;75.74;99715.14;225432;1282;22630;-76
2023/05/07 19:53:12;;;;;;;7.90;6.20;;;;;;;7.25;75.91;99713.70;225605;1280;22563;-75
2023/05/07 19:58:15;;;;;;;7.20;5.40;;;;;;;7.21;75.91;99710.86;225454;1277;22537;-76
2023/05/07 20:03:18;;;;;;;6.80;5.60;;;;;;;7.20;75.79;99716.98;225496;1279;25236;-77
2023/05/07 20:08:20;;;;;;;8.80;6.90;;;;;;;7.17;75.82;99716.56;225516;1277;22536;-75
2023/05/07 20:13:22;;;;;;;8.60;6.00;;;;;;;7.13;75.85;99715.30;225439;1276;22559;-75
2023/05/07 20:18:26;;;;;;;6.80;5.30;;;;;;;7.09;76.07;99715.49;225530;1276;22548;-75
2023/05/07 20:23:28;;;;;;;7.40;5.30;;;;;;;7.08;75.84;99719.09;225462;1280;25422;-77
2023/05/07 20:28:38;;;;;;;8.10;5.40;;;;;;;7.08;76.06;99718.02;225531;1279;22547;-76
2023/05/07 20:33:40;;;;;;;7.20;5.30;;;;;;;7.10;76.07;99721.97;225560;1279;22542;-76
2023/05/07 20:38:43;;;;;;;7.20;5.80;;;;;;;7.08;75.68;99733.08;225480;1281;22536;-76
2023/05/07 20:43:45;;;;;;;9.40;7.20;;;;;;;7.07;75.78;99742.85;225621;1280;22543;-76
2023/05/07 20:48:51;;;;;;;8.00;5.90;;;;;;;7.05;76.28;99744.60;225551;1280;22662;-75
2023/05/07 20:53:53;;;;;;;7.10;5.60;;;;;;;7.03;76.02;99741.08;225536;1276;24582;-74
2023/05/07 20:58:56;;;;;;;7.10;6.00;;;;;;;7.02;76.27;99739.75;225587;1282;25308;-75
2023/05/07 21:03:59;;;;;;;7.00;5.40;;;;;;;7.00;75.98;99744.48;225526;1277;22977;-73
2023/05/07 21:09:06;;;;;;;5.70;5.10;;;;;;;7.00;76.26;99746.77;225581;1282;23303;-75
2023/05/07 21:14:19;;;;;;;6.50;5.40;;;;;;;6.98;75.90;99748.37;225603;1282;24225;-75
2023/05/07 21:19:25;;;;;;;7.40;5.50;;;;;;;6.97;76.24;99751.29;225444;1281;23019;-76
2023/05/07 21:24:47;;;;;;;7.80;6.10;;;;;;;6.98;76.40;99748.42;225583;1282;22542;-74
2023/05/07 21:30:13;;;;;;;9.30;8.00;;;;;;;6.98;76.35;99745.59;225609;1282;25526;-75
2023/05/07 21:35:35;;;;;;;8.10;6.70;;;;;;;6.97;76.21;99745.55;225524;1282;22542;-75
2023/05/07 21:41:03;;;;;;;;;;;;;;;;;;;;;
2023/05/07 21:46:18;;;;;;;9.30;7.60;;;;;;;6.79;76.14;99756.47;225554;1278;22569;-75
2023/05/07 21:51:28;;;;;;;7.80;7.00;;;;;;;6.72;76.33;99756.36;225592;1277;22555;-75
2023/05/07 21:56:44;;;;;;;8.90;7.30;;;;;;;6.70;76.71;99762.52;225551;1279;22547;-76
2023/05/07 22:01:52;;;;;;;8.20;7.30;;;;;;;6.67;76.66;99761.26;225477;1278;22536;-75
2023/05/07 22:07:05;;;;;;;8.40;7.10;;;;;;;6.67;76.79;99761.40;225640;1282;22579;-76
2023/05/07 22:12:27;;;;;;;9.60;7.80;;;;;;;6.68;76.93;99767.77;225637;1280;22544;-75
2023/05/07 22:17:30;;;;;;;7.40;5.70;;;;;;;6.68;76.81;99771.98;225559;1278;22543;-76
2023/05/07 22:22:54;;;;;;;7.90;6.70;;;;;;;6.68;76.71;99770.27;225511;1280;22539;-75
2023/05/07 22:27:57;;;;;;;8.00;6.60;;;;;;;6.64;76.55;99763.40;225504;1280;22554;-76
2023/05/07 22:33:05;;;;;;;8.30;6.90;;;;;;;6.62;76.70;99764.66;225502;1279;22543;-76
2023/05/07 22:38:13;;;;;;;10.90;8.00;;;;;;;6.61;76.69;99762.86;223673;1278;2503306;-76
2023/05/07 22:44:09;;;;;;;7.50;6.70;;;;;;;6.60;76.76;99753.85;225473;1279;22539;-75
2023/05/07 22:49:28;;;;;;;9.00;7.80;;;;;;;6.58;76.55;99752.30;225606;1282;23103;-73
2023/05/07 22:54:34;;;;;;;9.70;8.60;;;;;;;6.53;76.85;99752.91;225520;1280;23179;-74
2023/05/07 23:00:05;;;;;;;11.10;8.50;;;;;;;6.41;76.53;99753.43;225512;1279;22572;-74
2023/05/07 23:05:44;;;;;;;10.00;8.80;;;;;;;6.26;76.74;99756.60;225504;1282;22556;-75
2023/05/07 23:11:11;;;;;;;14.80;12.10;;;;;;;6.12;77.01;99755.39;225522;1282;22638;-74
2023/05/07 23:16:41;;;;;;;17.60;13.50;;;;;;;5.96;76.95;99751.83;225523;1282;22536;-75
2023/05/07 23:22:04;;;;;;;;;;;;;;;;;;;;;
2023/05/07 23:27:16;;;;;;;18.30;13.60;;;;;;;5.91;77.81;99753.56;225530;1278;22567;-75
2023/05/07 23:32:42;;;;;;;14.00;10.80;;;;;;;5.93;77.65;99751.30;225546;1268;22559;-75
2023/05/07 23:37:45;;;;;;;12.60;9.90;;;;;;;5.96;77.66;99744.20;225515;1279;25463;-75
2023/05/07 23:43:05;;;;;;;9.30;8.30;;;;;;;5.99;77.66;99741.26;225599;1282;22539;-75
2023/05/07 23:48:08;;;;;;;8.70;7.50;;;;;;;6.02;77.59;99742.25;225424;1282;22536;-76
2023/05/07 23:53:14;;;;;;;10.40;9.30;;;;;;;5.93;77.75;99737.98;225592;1278;22649;-76
2023/05/07 23:58:17;;;;;;;11.60;9.70;;;;;;;5.76;77.77;99740.52;225567;1275;22552;-74
